createdAt,value
2023-04-30T00:02:03.353Z,8.20
2023-04-30T00:07:56.769Z,8.10
2023-04-30T00:13:50.295Z,8.10
2023-04-30T00:19:45.345Z,8.00
2023-04-30T00:25:38.480Z,8.10
2023-04-30T00:31:31.930Z,8.00
2023-04-30T00:37:26.920Z,8.00
2023-04-30T00:43:20.521Z,7.90
2023-04-30T00:49:13.494Z,8.00
2023-04-30T00:55:08.907Z,7.90
2023-04-30T01:01:03.106Z,7.80
2023-04-30T01:06:57.233Z,7.70
2023-04-30T01:12:59.842Z,7.70
2023-04-30T01:18:59.277Z,7.50
2023-04-30T01:25:23.032Z,7.60
2023-04-30T01:31:21.147Z,7.50
2023-04-30T01:37:23.905Z,7.50
2023-04-30T01:43:26.174Z,7.50
2023-04-30T01:49:28.577Z,7.40
2023-04-30T01:55:25.262Z,7.20
2023-04-30T02:01:29.374Z,7.30
2023-04-30T02:07:40.422Z,7.10
2023-04-30T02:13:34.411Z,7.20
2023-04-30T02:19:27.536Z,7.20
2023-04-30T02:25:21.960Z,7.20
2023-04-30T02:31:14.996Z,7.30
2023-04-30T02:37:08.064Z,7.20
2023-04-30T02:43:02.941Z,7.10
2023-04-30T02:48:55.927Z,7.00
2023-04-30T02:54:49.095Z,7.10
2023-04-30T03:00:43.908Z,7.00
2023-04-30T03:06:36.950Z,7.00
2023-04-30T03:12:30.375Z,7.10
2023-04-30T03:24:26.871Z,7.00
2023-04-30T03:30:20.353Z,7.00
2023-04-30T03:36:13.833Z,6.80
2023-04-30T03:42:08.222Z,6.90
2023-04-30T03:48:01.266Z,6.90
2023-04-30T03:53:54.740Z,7.10
2023-04-30T03:59:50.239Z,6.80
2023-04-30T04:05:44.384Z,6.70
2023-04-30T04:11:38.550Z,6.70
2023-04-30T04:17:33.343Z,6.70
2023-04-30T04:23:26.414Z,6.80
2023-04-30T04:29:19.779Z,6.80
2023-04-30T04:35:14.455Z,6.80
2023-04-30T04:41:08.097Z,6.80
2023-04-30T04:47:03.330Z,6.70
2023-04-30T04:52:59.072Z,6.90
2023-04-30T04:58:52.536Z,6.90
2023-04-30T05:04:46.910Z,7.00
2023-04-30T05:10:42.065Z,7.10
2023-04-30T05:16:35.531Z,7.10
2023-04-30T05:22:28.970Z,7.30
2023-04-30T05:28:23.712Z,7.40
2023-04-30T05:34:16.761Z,7.40
2023-04-30T05:40:11.195Z,7.50
2023-04-30T05:46:06.200Z,7.60
2023-04-30T05:51:59.371Z,7.70
2023-04-30T05:57:52.800Z,7.70
2023-04-30T06:03:47.218Z,7.70
2023-04-30T06:09:40.371Z,7.70
2023-04-30T06:15:33.567Z,7.80
2023-04-30T06:21:27.861Z,8.00
2023-04-30T06:27:21.505Z,8.10
2023-04-30T06:33:14.936Z,8.10
2023-04-30T06:39:09.315Z,8.30
2023-04-30T06:45:02.979Z,8.40
2023-04-30T06:50:55.939Z,8.50
2023-04-30T06:56:50.471Z,8.60
2023-04-30T07:02:43.896Z,8.80
2023-04-30T07:08:36.875Z,8.70
2023-04-30T07:14:31.675Z,8.90
2023-04-30T07:20:24.900Z,8.90
2023-04-30T07:26:18.286Z,8.90
2023-04-30T07:32:12.700Z,9.00
2023-04-30T07:38:05.845Z,9.10
2023-04-30T07:43:59.730Z,9.30
2023-04-30T07:49:54.601Z,9.30
2023-04-30T07:55:47.849Z,9.40
2023-04-30T08:01:41.236Z,9.50
2023-04-30T08:07:35.674Z,9.60
2023-04-30T08:13:29.059Z,9.70
2023-04-30T08:19:22.012Z,9.80
2023-04-30T08:25:16.489Z,9.70
2023-04-30T08:31:09.735Z,9.70
2023-04-30T08:37:03.214Z,9.90
2023-04-30T08:43:05.825Z,10.10
2023-04-30T08:48:59.614Z,10.10
2023-04-30T08:54:54.750Z,10.30
2023-04-30T09:00:49.546Z,10.40
2023-04-30T09:06:43.041Z,10.20
2023-04-30T09:12:37.064Z,10.40
2023-04-30T09:18:31.777Z,10.40
2023-04-30T09:24:26.092Z,10.80
2023-04-30T09:30:32.701Z,10.80
2023-04-30T09:36:28.189Z,10.90
2023-04-30T09:42:21.318Z,11.20
2023-04-30T09:48:18.067Z,11.00
2023-04-30T09:54:14.108Z,11.20
2023-04-30T10:00:10.268Z,11.50
2023-04-30T10:06:05.589Z,11.40
2023-04-30T10:12:02.315Z,12.50
2023-04-30T10:18:02.037Z,14.40
2023-04-30T10:23:56.825Z,14.50
2023-04-30T10:29:52.566Z,15.10
2023-04-30T10:35:51.174Z,16.60
2023-04-30T10:41:47.274Z,17.40
2023-04-30T10:47:43.619Z,17.50
2023-04-30T10:53:40.623Z,17.10
2023-04-30T10:59:33.603Z,17.50
2023-04-30T11:05:38.886Z,18.40
2023-04-30T11:11:35.275Z,18.50
2023-04-30T11:17:30.189Z,18.70
2023-04-30T11:23:38.499Z,18.40
2023-04-30T11:29:34.876Z,17.60
2023-04-30T11:35:30.338Z,19.00
2023-04-30T11:41:27.735Z,19.30
2023-04-30T11:47:21.132Z,20.00
2023-04-30T11:53:14.553Z,20.00
2023-04-30T11:59:13.037Z,19.20
2023-04-30T12:05:07.132Z,18.90
2023-04-30T12:11:00.166Z,20.40
2023-04-30T12:16:54.657Z,19.20
2023-04-30T12:22:48.349Z,19.60
2023-04-30T12:28:41.414Z,19.90
2023-04-30T12:34:39.249Z,19.80
2023-04-30T12:40:33.378Z,19.60
2023-04-30T12:46:29.466Z,18.80
2023-04-30T12:52:27.092Z,18.00
2023-04-30T12:58:20.488Z,17.70
2023-04-30T13:04:13.553Z,17.50
2023-04-30T13:10:09.113Z,17.40
2023-04-30T13:16:02.321Z,17.40
2023-04-30T13:21:55.328Z,17.80
2023-04-30T13:27:49.649Z,17.60
2023-04-30T13:33:43.112Z,18.50
2023-04-30T13:39:36.084Z,18.60
2023-04-30T13:45:30.633Z,19.40
2023-04-30T13:51:23.740Z,20.30
2023-04-30T13:57:16.716Z,20.70
2023-04-30T14:03:11.187Z,21.50
2023-04-30T14:09:04.217Z,22.60
2023-04-30T14:14:58.045Z,21.60
2023-04-30T14:20:52.441Z,22.50
2023-04-30T14:26:45.810Z,23.60
2023-04-30T14:32:39.337Z,23.70
2023-04-30T14:38:34.182Z,22.90
2023-04-30T14:44:27.689Z,22.10
2023-04-30T14:50:20.669Z,22.10
2023-04-30T14:56:15.916Z,21.00
2023-04-30T15:02:09.664Z,19.70
2023-04-30T15:08:02.689Z,18.80
2023-04-30T15:13:57.467Z,18.70
2023-04-30T15:19:50.988Z,18.50
2023-04-30T15:25:44.584Z,17.90
2023-04-30T15:31:39.098Z,17.70
2023-04-30T15:37:32.534Z,17.70
2023-04-30T15:43:25.954Z,17.20
2023-04-30T15:49:21.159Z,17.40
2023-04-30T15:55:14.653Z,17.30
2023-04-30T16:01:07.702Z,17.30
2023-04-30T16:07:03.263Z,17.20
2023-04-30T16:12:56.821Z,17.20
2023-04-30T16:18:51.270Z,16.70
2023-04-30T16:24:46.081Z,16.70
2023-04-30T16:30:39.593Z,16.80
2023-04-30T16:36:32.727Z,16.80
2023-04-30T16:42:27.937Z,16.60
2023-04-30T16:48:20.946Z,16.30
2023-04-30T16:54:14.425Z,16.20
2023-04-30T17:00:11.450Z,16.10
2023-04-30T17:06:05.152Z,16.10
2023-04-30T17:11:58.718Z,15.90
2023-04-30T17:17:53.727Z,15.90
2023-04-30T17:23:47.285Z,15.90
2023-04-30T17:29:40.350Z,15.70
2023-04-30T17:35:35.360Z,15.60
2023-04-30T17:41:28.345Z,15.50
2023-04-30T17:47:23.308Z,15.60
2023-04-30T17:53:17.715Z,15.30
2023-04-30T17:59:10.681Z,15.00
2023-04-30T18:05:04.157Z,14.90
2023-04-30T18:10:58.653Z,14.70
2023-04-30T18:16:52.167Z,14.60
2023-04-30T18:22:45.689Z,14.80
2023-04-30T18:28:40.044Z,14.60
2023-04-30T18:34:33.503Z,14.60
2023-04-30T18:40:26.659Z,14.60
2023-04-30T18:46:22.931Z,14.50
2023-04-30T18:52:16.394Z,14.30
2023-04-30T18:58:09.854Z,14.20
2023-04-30T19:04:04.322Z,14.20
2023-04-30T19:09:58.097Z,14.00
2023-04-30T19:15:52.928Z,14.10
2023-04-30T19:21:47.302Z,13.90
2023-04-30T19:27:40.252Z,14.00
2023-04-30T19:33:38.056Z,14.00
2023-04-30T19:39:34.308Z,14.00
2023-04-30T19:45:27.357Z,13.70
2023-04-30T19:51:20.768Z,13.80
2023-04-30T19:57:15.670Z,13.60
2023-04-30T20:03:09.251Z,13.30
2023-04-30T20:09:02.987Z,13.20
2023-04-30T20:14:57.762Z,13.10
2023-04-30T20:20:50.781Z,12.90
2023-04-30T20:26:43.902Z,13.10
2023-04-30T20:32:39.395Z,13.30
2023-04-30T20:38:32.425Z,12.80
2023-04-30T20:44:27.114Z,12.40
2023-04-30T20:50:22.145Z,12.60
2023-04-30T20:56:15.098Z,12.40
2023-04-30T21:02:10.127Z,12.10
2023-04-30T21:08:05.219Z,12.20
2023-04-30T21:13:58.620Z,12.50
2023-04-30T21:19:52.044Z,12.50
2023-04-30T21:25:46.873Z,12.60
2023-04-30T21:31:40.274Z,12.40
2023-04-30T21:37:33.674Z,12.60
2023-04-30T21:43:28.461Z,12.50
2023-04-30T21:49:21.873Z,12.40
2023-04-30T21:55:15.318Z,12.30
2023-04-30T22:01:09.839Z,12.10
2023-04-30T22:07:03.235Z,12.20
2023-04-30T22:12:56.752Z,12.10
2023-04-30T22:18:51.968Z,12.10
2023-04-30T22:24:45.361Z,12.00
2023-04-30T22:30:39.773Z,11.90
2023-04-30T22:36:34.088Z,11.80
2023-04-30T22:42:27.600Z,11.80
2023-04-30T22:48:21.196Z,11.80
2023-04-30T22:54:15.957Z,11.20
2023-04-30T23:00:10.430Z,11.20
2023-04-30T23:06:03.832Z,11.40
2023-04-30T23:11:58.652Z,11.10
2023-04-30T23:17:52.143Z,11.20
2023-04-30T23:23:45.687Z,11.20
2023-04-30T23:29:40.466Z,11.20
2023-04-30T23:35:33.498Z,10.90
2023-04-30T23:41:27.337Z,10.70
2023-04-30T23:47:21.663Z,11.10
2023-04-30T23:53:17.158Z,11.00
2023-04-30T23:59:10.619Z,11.00
